Time;durP1;ratioP1;P1;durP2;ratioP2;P2;SDS_P1;SDS_P2;PMS_P1;PMS_P2;Temp;Humidity;BMP_temperature;BMP_pressure;BME280_temperature;BME280_humidity;BME280_pressure;Samples;Min_cycle;Max_cycle;Signal;HPM_P1;HPM_P2
2020/12/10 00:02:28;;;;;;;18.77;13.48;;;7.50;61.60;;;;;;5056486;28;20116;-72
2020/12/10 00:04:54;;;;;;;17.17;11.68;;;7.50;61.60;;;;;;5054976;28;20021;-72
2020/12/10 00:07:23;;;;;;;21.13;13.18;;;7.50;61.60;;;;;;5055680;28;20446;-72
2020/12/10 00:09:50;;;;;;;16.00;11.18;;;7.50;61.60;;;;;;5051680;28;20044;-72
2020/12/10 00:12:17;;;;;;;18.50;11.70;;;7.50;61.50;;;;;;5035060;28;20017;-72
2020/12/10 00:14:43;;;;;;;17.52;11.40;;;7.50;61.50;;;;;;5051027;28;20506;-72
2020/12/10 00:17:09;;;;;;;17.90;12.13;;;7.60;61.40;;;;;;5071634;28;20029;-72
2020/12/10 00:19:35;;;;;;;17.58;11.57;;;7.50;61.30;;;;;;5056610;28;20107;-72
2020/12/10 00:22:01;;;;;;;17.80;11.75;;;7.50;61.30;;;;;;5056115;28;20532;-73
2020/12/10 00:24:27;;;;;;;16.98;11.25;;;7.60;61.40;;;;;;5055884;28;20041;-72
2020/12/10 00:26:53;;;;;;;18.73;12.13;;;7.60;61.40;;;;;;5056137;28;20032;-72
2020/12/10 00:29:19;;;;;;;16.40;11.15;;;7.60;61.30;;;;;;5056007;28;20025;-73
2020/12/10 00:31:45;;;;;;;21.88;13.60;;;7.60;61.30;;;;;;5054622;28;20036;-73
2020/12/10 00:34:11;;;;;;;17.90;11.88;;;7.60;61.20;;;;;;5054401;28;20111;-72
2020/12/10 00:36:37;;;;;;;21.27;14.20;;;7.60;61.10;;;;;;5054530;28;20110;-72
2020/12/10 00:39:04;;;;;;;21.70;14.68;;;7.60;61.10;;;;;;5055751;28;20133;-72
2020/12/10 00:41:30;;;;;;;21.10;13.50;;;7.60;61.10;;;;;;5054565;28;20033;-72
2020/12/10 00:43:55;;;;;;;20.42;12.40;;;7.60;61.10;;;;;;5055623;28;20078;-72
2020/12/10 00:46:21;;;;;;;17.15;11.15;;;7.70;61.20;;;;;;5054512;28;20107;-72
2020/12/10 00:48:50;;;;;;;19.65;12.38;;;7.70;61.30;;;;;;5053118;28;20033;-72
2020/12/10 00:51:16;;;;;;;18.83;12.90;;;7.70;61.40;;;;;;5055314;28;20120;-72
2020/12/10 00:53:41;;;;;;;21.17;12.07;;;7.70;61.30;;;;;;5055796;28;20101;-72
2020/12/10 00:56:07;;;;;;;19.73;12.80;;;7.70;61.30;;;;;;5055550;28;20028;-72
2020/12/10 00:58:33;;;;;;;21.55;13.15;;;7.70;61.20;;;;;;5055829;28;20048;-72
2020/12/10 01:00:59;;;;;;;17.05;12.45;;;7.80;61.20;;;;;;5055518;28;20028;-72
2020/12/10 01:03:25;;;;;;;18.33;11.60;;;7.80;61.20;;;;;;5055522;28;20544;-72
2020/12/10 01:05:50;;;;;;;17.23;11.45;;;7.80;61.20;;;;;;5055106;28;20028;-72
2020/12/10 01:08:16;;;;;;;18.08;11.02;;;7.80;61.10;;;;;;5055341;28;20048;-72
2020/12/10 01:10:42;;;;;;;17.40;11.23;;;7.80;61.00;;;;;;5055800;28;20032;-72
2020/12/10 01:13:08;;;;;;;17.83;9.80;;;7.80;60.90;;;;;;5054006;28;20021;-72
2020/12/10 01:15:34;;;;;;;15.80;9.70;;;7.80;60.90;;;;;;5055097;28;20021;-72
2020/12/10 01:18:00;;;;;;;15.57;9.32;;;7.80;60.90;;;;;;5055131;28;20071;-72
2020/12/10 01:20:26;;;;;;;14.60;9.27;;;7.80;60.80;;;;;;5055357;28;20029;-72
2020/12/10 01:22:51;;;;;;;14.15;9.25;;;7.90;60.80;;;;;;5054444;28;20504;-72
2020/12/10 01:25:17;;;;;;;15.52;9.93;;;7.80;60.80;;;;;;5054519;28;20029;-72
2020/12/10 01:27:43;;;;;;;18.10;11.60;;;7.90;60.90;;;;;;5054731;28;20086;-72
2020/12/10 01:30:08;;;;;;;15.52;9.85;;;7.90;61.00;;;;;;5054744;28;20025;-72
2020/12/10 01:32:34;;;;;;;14.10;9.73;;;7.90;60.80;;;;;;5053439;28;20021;-71
2020/12/10 01:35:00;;;;;;;16.05;10.23;;;7.90;60.80;;;;;;5054698;28;20028;-72
2020/12/10 01:37:26;;;;;;;18.70;11.07;;;7.90;60.80;;;;;;5069785;28;20104;-73
2020/12/10 01:39:52;;;;;;;14.40;9.63;;;7.90;60.70;;;;;;5054545;28;20470;-72
2020/12/10 01:42:19;;;;;;;17.20;11.25;;;7.90;60.70;;;;;;5053387;28;20017;-72
2020/12/10 01:44:45;;;;;;;16.17;10.35;;;8.00;60.70;;;;;;5056766;28;20397;-70
2020/12/10 01:47:11;;;;;;;15.40;10.05;;;8.00;60.60;;;;;;5058504;28;20028;-72
2020/12/10 01:49:38;;;;;;;14.13;9.85;;;8.00;60.50;;;;;;5053641;28;20021;-72
2020/12/10 01:52:05;;;;;;;13.10;8.55;;;7.90;60.40;;;;;;5055435;28;20028;-72
2020/12/10 01:54:32;;;;;;;14.80;9.50;;;7.90;60.50;;;;;;5054099;28;20044;-72
2020/12/10 01:56:58;;;;;;;14.45;9.85;;;7.90;60.50;;;;;;5054337;28;20471;-72
2020/12/10 01:59:24;;;;;;;12.57;9.05;;;7.90;60.40;;;;;;5066789;28;20029;-72
2020/12/10 02:01:50;;;;;;;13.27;8.93;;;8.00;60.40;;;;;;5054227;28;20039;-72
2020/12/10 02:04:32;;;;;;;12.30;8.05;;;7.90;60.30;;;;;;5054386;28;20024;-72
2020/12/10 02:06:58;;;;;;;12.55;8.57;;;7.90;60.40;;;;;;5052458;28;20029;-72
2020/12/10 02:09:24;;;;;;;14.18;8.82;;;8.00;60.30;;;;;;5053969;28;20435;-73
2020/12/10 02:11:51;;;;;;;13.23;8.63;;;7.90;60.10;;;;;;5056702;28;20485;-72
2020/12/10 02:14:17;;;;;;;15.32;9.88;;;7.90;60.10;;;;;;5052677;28;20028;-72
2020/12/10 02:16:43;;;;;;;14.90;10.30;;;7.90;60.00;;;;;;5053245;28;20079;-72
2020/12/10 02:19:09;;;;;;;12.50;9.02;;;7.90;59.90;;;;;;5048921;28;20095;-72
2020/12/10 02:21:39;;;;;;;12.38;8.38;;;7.90;59.90;;;;;;5060875;28;20093;-72
2020/12/10 02:24:05;;;;;;;15.80;10.38;;;7.90;59.80;;;;;;5052465;28;20135;-72
2020/12/10 02:26:31;;;;;;;15.00;9.60;;;7.80;59.70;;;;;;5056684;28;20036;-72
2020/12/10 02:28:59;;;;;;;13.65;8.98;;;7.80;59.80;;;;;;5067034;28;20032;-72
2020/12/10 02:31:27;;;;;;;12.40;8.68;;;7.70;59.80;;;;;;5072801;28;20021;-72
2020/12/10 02:34:01;;;;;;;14.30;10.20;;;7.70;59.80;;;;;;5071019;28;20035;-72
2020/12/10 02:36:26;;;;;;;;;;;7.70;59.80;;;;;;5072076;28;20020;-72
2020/12/10 02:38:53;;;;;;;14.43;9.07;;;7.70;59.90;;;;;;5052217;28;19928;-72
2020/12/10 02:41:19;;;;;;;15.15;10.20;;;7.70;59.80;;;;;;5049879;28;20414;-72
2020/12/10 02:43:44;;;;;;;13.00;8.82;;;7.60;59.80;;;;;;5052647;28;20017;-72
2020/12/10 02:46:10;;;;;;;15.57;9.82;;;7.60;59.80;;;;;;5051187;28;20037;-72
2020/12/10 02:48:37;;;;;;;12.95;9.00;;;7.50;59.80;;;;;;5052601;28;20029;-72
2020/12/10 02:51:04;;;;;;;14.13;9.48;;;7.50;59.90;;;;;;5052494;28;20359;-72
2020/12/10 02:53:31;;;;;;;13.57;9.30;;;7.50;60.00;;;;;;5051244;28;20036;-72
2020/12/10 02:55:56;;;;;;;15.10;9.77;;;7.50;60.00;;;;;;5052261;28;20386;-72
2020/12/10 02:58:22;;;;;;;13.95;9.23;;;7.50;60.10;;;;;;5052533;28;20147;-72
2020/12/10 03:00:48;;;;;;;13.70;9.02;;;7.50;60.10;;;;;;5052471;28;20035;-72
2020/12/10 03:03:14;;;;;;;15.20;9.70;;;7.40;60.00;;;;;;5052103;28;20108;-73
2020/12/10 03:05:40;;;;;;;15.32;10.27;;;7.40;60.00;;;;;;5052295;28;20025;-72
2020/12/10 03:08:07;;;;;;;12.32;9.10;;;7.40;60.10;;;;;;5052450;28;20021;-72
2020/12/10 03:10:33;;;;;;;14.82;9.75;;;7.40;60.10;;;;;;5052061;28;20052;-72
2020/12/10 03:12:58;;;;;;;15.05;9.45;;;7.40;60.10;;;;;;5054905;28;20075;-72
2020/12/10 03:15:24;;;;;;;14.00;9.63;;;7.40;60.20;;;;;;5056650;28;20470;-72
2020/12/10 03:17:50;;;;;;;18.00;10.73;;;7.40;60.30;;;;;;5056441;28;20021;-72
2020/12/10 03:20:17;;;;;;;13.65;8.55;;;7.30;60.30;;;;;;5049407;28;20431;-73
2020/12/10 03:22:43;;;;;;;14.10;9.40;;;7.30;61.10;;;;;;5036489;28;20073;-72
2020/12/10 03:25:09;;;;;;;11.85;8.15;;;7.30;60.40;;;;;;5053239;28;20120;-71
2020/12/10 03:27:34;;;;;;;15.00;9.82;;;7.40;60.60;;;;;;5071747;28;20108;-72
2020/12/10 03:30:00;;;;;;;16.08;11.00;;;7.30;60.60;;;;;;5056151;28;20408;-72
2020/12/10 03:32:26;;;;;;;13.48;9.25;;;7.30;60.60;;;;;;5056192;28;20047;-72
2020/12/10 03:34:53;;;;;;;13.88;9.38;;;7.30;60.60;;;;;;5056202;28;20101;-72
2020/12/10 03:37:19;;;;;;;21.98;13.52;;;7.30;60.70;;;;;;5056155;28;20104;-72
2020/12/10 03:39:44;;;;;;;19.88;12.82;;;7.30;60.70;;;;;;5054938;28;20554;-72
2020/12/10 03:42:10;;;;;;;19.70;12.57;;;7.30;60.60;;;;;;5055111;28;20013;-72
2020/12/10 03:44:36;;;;;;;14.68;9.95;;;7.30;60.70;;;;;;5055955;28;20021;-72
2020/12/10 03:47:02;;;;;;;22.77;14.02;;;7.30;60.70;;;;;;5055889;28;20428;-72
2020/12/10 03:49:28;;;;;;;20.58;13.57;;;7.30;60.80;;;;;;5055826;28;20378;-72
2020/12/10 03:51:53;;;;;;;20.27;12.02;;;7.20;60.70;;;;;;5055772;28;20029;-72
2020/12/10 03:54:19;;;;;;;19.80;12.35;;;7.20;60.70;;;;;;5055875;28;20110;-72
2020/12/10 03:56:45;;;;;;;16.98;11.13;;;7.20;60.80;;;;;;5071071;28;20032;-73
2020/12/10 03:59:11;;;;;;;16.98;11.02;;;7.20;60.70;;;;;;5055595;28;20025;-72
2020/12/10 04:01:37;;;;;;;14.38;10.27;;;7.20;60.70;;;;;;5055680;28;20035;-72
2020/12/10 04:04:03;;;;;;;16.23;10.65;;;7.20;60.70;;;;;;5055662;28;20474;-72
2020/12/10 04:06:29;;;;;;;15.18;9.52;;;7.30;60.90;;;;;;5055900;28;20083;-72
2020/12/10 04:08:55;;;;;;;12.80;8.55;;;7.30;60.90;;;;;;5055539;28;20041;-72
2020/12/10 04:11:21;;;;;;;18.70;10.82;;;7.30;60.90;;;;;;5055238;28;20021;-72
2020/12/10 04:13:47;;;;;;;13.43;9.30;;;7.30;60.90;;;;;;5055477;28;20056;-72
2020/12/10 04:16:13;;;;;;;14.57;8.98;;;7.30;60.90;;;;;;5055216;28;20017;-72
2020/12/10 04:18:40;;;;;;;13.93;9.63;;;7.30;60.80;;;;;;5055352;28;20470;-72
2020/12/10 04:21:07;;;;;;;13.93;9.70;;;7.40;60.80;;;;;;5041232;28;20636;-72
2020/12/10 04:23:33;;;;;;;16.05;9.57;;;7.40;60.70;;;;;;5036083;28;20080;-72
2020/12/10 04:25:59;;;;;;;13.60;8.77;;;7.40;60.60;;;;;;5054823;28;20067;-72
2020/12/10 04:28:25;;;;;;;16.90;10.88;;;7.40;60.60;;;;;;5054920;28;20057;-72
2020/12/10 04:30:51;;;;;;;15.88;9.73;;;7.40;60.60;;;;;;5054923;28;20039;-72
2020/12/10 04:33:17;;;;;;;14.82;9.27;;;7.40;60.50;;;;;;5053329;28;20024;-72
2020/12/10 04:35:43;;;;;;;16.98;11.00;;;7.40;60.40;;;;;;5054779;28;20021;-73
2020/12/10 04:38:09;;;;;;;13.35;9.15;;;7.40;60.40;;;;;;5053587;28;20108;-72
2020/12/10 04:40:36;;;;;;;17.42;9.07;;;7.40;60.30;;;;;;5054919;28;20021;-72
2020/12/10 04:43:08;;;;;;;14.32;9.82;;;7.30;60.30;;;;;;5054712;28;20052;-72
2020/12/10 04:45:34;;;;;;;17.55;10.70;;;7.30;60.30;;;;;;5054765;28;20029;-72
2020/12/10 04:48:00;;;;;;;20.40;10.98;;;7.30;60.30;;;;;;5054611;28;20036;-72
2020/12/10 04:50:27;;;;;;;14.88;9.52;;;7.30;60.40;;;;;;5053348;28;20029;-72
2020/12/10 04:52:54;;;;;;;14.65;9.63;;;7.30;60.50;;;;;;5054569;28;20023;-72
2020/12/10 04:55:20;;;;;;;18.20;10.18;;;7.20;60.40;;;;;;5054333;28;20413;-72
2020/12/10 04:57:47;;;;;;;15.55;9.75;;;7.20;60.60;;;;;;5053587;28;20359;-72
2020/12/10 05:00:17;;;;;;;15.25;9.93;;;7.20;60.70;;;;;;5054412;28;20028;-72
2020/12/10 05:02:45;;;;;;;13.57;9.60;;;7.20;60.70;;;;;;5054333;28;20485;-72
2020/12/10 05:05:25;;;;;;;13.40;9.07;;;7.10;60.70;;;;;;5054436;28;20079;-72
2020/12/10 05:07:51;;;;;;;11.93;8.15;;;7.10;60.80;;;;;;5054317;28;20017;-72
2020/12/10 05:10:17;;;;;;;11.32;7.57;;;7.10;60.90;;;;;;5066885;28;20040;-72
2020/12/10 05:12:44;;;;;;;12.90;8.80;;;7.10;61.00;;;;;;5074218;28;20028;-72
2020/12/10 05:15:11;;;;;;;11.77;7.88;;;7.00;61.00;;;;;;5074302;28;20081;-72
2020/12/10 05:17:37;;;;;;;11.00;7.32;;;7.00;61.00;;;;;;5074190;28;20021;-73
2020/12/10 05:20:05;;;;;;;11.95;7.93;;;7.00;61.10;;;;;;5063558;28;20025;-72
2020/12/10 05:22:31;;;;;;;11.43;7.82;;;7.00;61.10;;;;;;5034141;28;20025;-73
2020/12/10 05:25:04;;;;;;;11.75;7.28;;;7.00;61.20;;;;;;5045810;28;20045;-72
2020/12/10 05:27:32;;;;;;;11.07;7.00;;;7.00;61.20;;;;;;5053829;28;20052;-72
2020/12/10 05:29:58;;;;;;;11.63;7.63;;;7.00;61.30;;;;;;5053736;28;20029;-72
2020/12/10 05:32:32;;;;;;;13.05;8.35;;;7.00;61.30;;;;;;5052453;28;20031;-73
2020/12/10 05:34:59;;;;;;;10.15;6.90;;;7.00;61.30;;;;;;5051795;28;20029;-72
2020/12/10 05:37:29;;;;;;;9.43;6.95;;;7.00;61.30;;;;;;5052750;28;20352;-72
2020/12/10 05:40:00;;;;;;;12.98;8.82;;;7.00;61.40;;;;;;5052699;28;20378;-72
2020/12/10 05:42:34;;;;;;;10.98;7.00;;;7.00;61.40;;;;;;5053692;28;20017;-72
2020/12/10 05:45:08;;;;;;;13.55;7.18;;;7.00;61.50;;;;;;5052347;28;20078;-72
2020/12/10 05:47:38;;;;;;;9.02;6.03;;;7.00;61.50;;;;;;5053592;28;20021;-72
2020/12/10 05:50:04;;;;;;;13.65;7.68;;;7.00;61.40;;;;;;5053350;28;20040;-72
2020/12/10 05:52:35;;;;;;;13.07;7.90;;;7.00;61.50;;;;;;5053401;28;20025;-72
2020/12/10 05:55:03;;;;;;;13.73;8.10;;;7.00;61.60;;;;;;5053519;28;20021;-72
2020/12/10 05:57:29;;;;;;;11.20;6.88;;;7.00;61.60;;;;;;5053378;28;20447;-72
2020/12/10 05:59:55;;;;;;;10.13;6.55;;;7.00;61.50;;;;;;5051955;28;20036;-72
2020/12/10 06:02:21;;;;;;;10.30;7.25;;;7.00;61.50;;;;;;5053275;28;20363;-73
2020/12/10 06:04:52;;;;;;;11.50;6.70;;;6.90;61.50;;;;;;5068323;28;20031;-72
2020/12/10 06:07:17;;;;;;;10.10;6.32;;;7.00;61.50;;;;;;5073425;28;20023;-72
2020/12/10 06:09:43;;;;;;;9.85;5.43;;;6.90;61.50;;;;;;5063939;28;20029;-73
2020/12/10 06:12:09;;;;;;;9.85;5.30;;;7.00;61.70;;;;;;5053034;28;20037;-72
2020/12/10 06:14:51;;;;;;;7.50;4.78;;;7.00;61.60;;;;;;5053116;28;20096;-72
2020/12/10 06:17:17;;;;;;;7.78;5.30;;;7.00;61.60;;;;;;5053347;28;20092;-72
2020/12/10 06:19:42;;;;;;;9.98;6.07;;;7.00;61.50;;;;;;5050349;28;20101;-72
2020/12/10 06:22:25;;;;;;;9.38;6.70;;;7.00;61.50;;;;;;5032970;28;20548;-72
2020/12/10 06:24:51;;;;;;;9.80;5.78;;;7.00;61.50;;;;;;5043034;28;20048;-72
2020/12/10 06:27:43;;;;;;;10.45;5.80;;;7.10;61.60;;;;;;5052926;28;20101;-72
2020/12/10 06:30:17;;;;;;;9.20;6.13;;;7.10;61.60;;;;;;5050592;28;20033;-72
2020/12/10 06:32:49;;;;;;;9.63;6.13;;;7.10;61.50;;;;;;5052739;28;20025;-72
2020/12/10 06:35:35;;;;;;;9.48;6.22;;;7.10;61.40;;;;;;5051315;28;20505;-72
2020/12/10 06:38:07;;;;;;;10.60;6.32;;;7.10;61.40;;;;;;5052886;28;20094;-72
2020/12/10 06:40:41;;;;;;;9.68;5.95;;;7.10;61.30;;;;;;5052749;28;20029;-72
2020/12/10 06:43:08;;;;;;;7.65;5.22;;;7.10;61.20;;;;;;5057622;28;20033;-72
2020/12/10 06:45:39;;;;;;;5.88;4.25;;;7.10;61.20;;;;;;5031283;28;20029;-72
2020/12/10 06:48:09;;;;;;;7.43;4.75;;;7.10;61.30;;;;;;5032390;28;20541;-72
2020/12/10 06:50:40;;;;;;;7.38;4.40;;;7.10;61.30;;;;;;5032627;28;20113;-72
2020/12/10 06:53:14;;;;;;;5.28;3.78;;;7.10;62.00;;;;;;5032590;28;20021;-72
2020/12/10 06:55:56;;;;;;;4.82;3.78;;;7.10;61.30;;;;;;5049045;28;20028;-72
2020/12/10 06:58:39;;;;;;;8.27;4.70;;;7.10;61.30;;;;;;5051085;28;20025;-72
2020/12/10 07:01:29;;;;;;;6.18;4.20;;;7.10;61.30;;;;;;5052295;28;20101;-72
2020/12/10 07:04:29;;;;;;;6.60;4.15;;;7.10;61.20;;;;;;5066150;28;20033;-72
2020/12/10 07:07:13;;;;;;;6.75;4.28;;;7.10;61.20;;;;;;5072324;28;20034;-71
2020/12/10 07:09:50;;;;;;;6.82;4.57;;;7.10;61.20;;;;;;5064653;28;20029;-72
2020/12/10 07:12:30;;;;;;;4.82;3.55;;;7.10;61.30;;;;;;5052154;28;20405;-72
2020/12/10 07:15:13;;;;;;;4.93;3.90;;;7.00;61.30;;;;;;5052211;28;20017;-73
2020/12/10 07:17:40;;;;;;;7.30;4.20;;;7.10;61.40;;;;;;5052238;28;20304;-72
2020/12/10 07:20:05;;;;;;;5.60;4.20;;;7.00;61.40;;;;;;5046436;28;20532;-72
2020/12/10 07:22:31;;;;;;;7.03;4.80;;;7.00;61.50;;;;;;5032185;28;20029;-72
2020/12/10 07:24:57;;;;;;;6.43;3.75;;;7.00;61.60;;;;;;5042174;28;20041;-72
2020/12/10 07:27:25;;;;;;;6.13;4.15;;;7.00;61.80;;;;;;5052115;28;20471;-72
2020/12/10 07:29:52;;;;;;;7.68;4.75;;;7.00;61.80;;;;;;5051786;28;20390;-73
2020/12/10 07:32:18;;;;;;;7.57;4.45;;;7.00;61.90;;;;;;5051932;28;20039;-72
2020/12/10 07:34:44;;;;;;;7.07;5.15;;;7.00;61.90;;;;;;5051888;28;20108;-72
2020/12/10 07:37:12;;;;;;;9.73;5.43;;;7.00;61.90;;;;;;5051966;28;20497;-72
2020/12/10 07:39:38;;;;;;;10.65;4.82;;;7.00;61.90;;;;;;5052188;28;20441;-72
2020/12/10 07:42:04;;;;;;;6.63;4.25;;;7.00;61.90;;;;;;5051906;28;20024;-72
2020/12/10 07:44:33;;;;;;;5.97;3.95;;;7.00;62.00;;;;;;5067364;28;20032;-72
2020/12/10 07:47:01;;;;;;;6.15;3.38;;;7.00;62.00;;;;;;5051995;28;20030;-72
2020/12/10 07:49:28;;;;;;;7.65;4.40;;;7.10;62.10;;;;;;5050604;28;20037;-72
2020/12/10 07:52:07;;;;;;;6.15;4.03;;;7.10;62.10;;;;;;5051859;28;20104;-72
2020/12/10 07:55:00;;;;;;;6.88;3.75;;;7.10;62.00;;;;;;5050440;28;20052;-72
2020/12/10 07:57:30;;;;;;;5.35;3.92;;;7.20;61.90;;;;;;5067346;28;20037;-72
2020/12/10 08:00:01;;;;;;;5.55;3.53;;;7.20;61.90;;;;;;5062242;28;20021;-73
2020/12/10 08:02:46;;;;;;;6.30;4.35;;;7.20;61.90;;;;;;5070494;28;20060;-72
2020/12/10 08:05:20;;;;;;;7.68;4.68;;;7.30;61.80;;;;;;5055654;28;20029;-72
2020/12/10 08:07:49;;;;;;;7.28;4.18;;;7.30;61.70;;;;;;5054287;28;20371;-72
2020/12/10 08:10:30;;;;;;;6.65;4.63;;;7.30;61.70;;;;;;5044373;28;20159;-72
2020/12/10 08:13:12;;;;;;;7.32;4.70;;;7.40;61.60;;;;;;5072475;28;20439;-72
2020/12/10 08:15:40;;;;;;;5.80;3.85;;;7.40;61.60;;;;;;5075502;28;20017;-72
2020/12/10 08:18:14;;;;;;;8.82;4.22;;;7.50;61.70;;;;;;5065030;28;20032;-72
2020/12/10 08:20:40;;;;;;;5.60;4.25;;;7.50;61.60;;;;;;5045283;28;20368;-72
2020/12/10 08:23:06;;;;;;;7.30;4.70;;;7.60;61.50;;;;;;5034296;28;20068;-72
2020/12/10 08:25:32;;;;;;;8.48;4.88;;;7.60;61.30;;;;;;5051105;28;20053;-72
2020/12/10 08:27:58;;;;;;;6.35;4.30;;;7.70;61.20;;;;;;5035912;28;20025;-73
2020/12/10 08:30:24;;;;;;;5.93;3.63;;;7.70;61.10;;;;;;5052412;28;20540;-73
2020/12/10 08:32:51;;;;;;;8.07;4.15;;;7.70;61.00;;;;;;5065734;28;20385;-73
2020/12/10 08:35:19;;;;;;;4.93;3.65;;;7.70;61.00;;;;;;5035254;28;20079;-73
2020/12/10 08:37:45;;;;;;;7.57;4.55;;;7.80;61.00;;;;;;5071582;28;20473;-73
2020/12/10 08:40:12;;;;;;;9.02;4.00;;;7.80;61.10;;;;;;5075051;28;20107;-73
2020/12/10 08:42:38;;;;;;;8.43;5.20;;;7.80;61.10;;;;;;5075180;28;20465;-72
2020/12/10 08:45:07;;;;;;;6.90;4.57;;;7.90;60.90;;;;;;5069320;28;20036;-73
2020/12/10 08:47:33;;;;;;;7.07;4.80;;;7.90;60.60;;;;;;5058670;28;20508;-73
2020/12/10 08:50:05;;;;;;;6.28;3.92;;;8.00;60.70;;;;;;5055916;28;20032;-73
2020/12/10 08:52:30;;;;;;;7.32;4.25;;;8.00;60.60;;;;;;5054380;28;20060;-73
2020/12/10 08:54:56;;;;;;;5.43;4.05;;;8.10;60.60;;;;;;5054674;28;20044;-73
2020/12/10 08:57:22;;;;;;;6.22;3.75;;;8.10;60.40;;;;;;5058749;28;20407;-73
2020/12/10 08:59:48;;;;;;;6.80;4.15;;;8.20;60.40;;;;;;5061338;28;20032;-73
2020/12/10 09:02:14;;;;;;;6.00;3.78;;;8.20;60.10;;;;;;5054111;28;20074;-73
2020/12/10 09:04:39;;;;;;;6.60;4.35;;;8.20;60.00;;;;;;5054494;28;20049;-73
2020/12/10 09:07:05;;;;;;;5.38;4.03;;;8.20;59.80;;;;;;5054593;28;20071;-73
2020/12/10 09:09:31;;;;;;;7.72;4.47;;;8.30;59.80;;;;;;5053671;28;20036;-73
2020/12/10 09:11:56;;;;;;;5.93;3.88;;;8.30;59.80;;;;;;5054348;28;20474;-73
2020/12/10 09:14:22;;;;;;;5.03;3.40;;;8.30;59.70;;;;;;5054317;28;20033;-73
2020/12/10 09:16:50;;;;;;;5.75;4.03;;;8.40;59.80;;;;;;5053176;28;20028;-73
2020/12/10 09:19:17;;;;;;;5.25;3.70;;;8.40;59.80;;;;;;5054342;28;20104;-73
2020/12/10 09:21:43;;;;;;;7.32;4.50;;;8.50;59.70;;;;;;5035398;28;20030;-73
2020/12/10 09:24:08;;;;;;;5.25;4.10;;;8.60;59.70;;;;;;5033953;28;20053;-73
2020/12/10 09:26:38;;;;;;;7.13;3.90;;;8.60;59.40;;;;;;5033985;28;20036;-73
2020/12/10 09:29:04;;;;;;;8.90;4.30;;;8.60;59.20;;;;;;5052853;28;20067;-73
2020/12/10 09:31:29;;;;;;;6.22;4.38;;;8.60;59.00;;;;;;5053839;28;20037;-73
2020/12/10 09:33:55;;;;;;;9.10;4.15;;;8.70;58.90;;;;;;5052754;28;20025;-73
2020/12/10 09:36:22;;;;;;;5.63;3.83;;;8.60;58.70;;;;;;5052606;28;20512;-73
2020/12/10 09:38:47;;;;;;;7.07;4.13;;;8.70;58.80;;;;;;5053920;28;20021;-74
2020/12/10 09:41:13;;;;;;;6.57;3.85;;;8.60;58.50;;;;;;5052443;28;20033;-73
2020/12/10 09:43:39;;;;;;;6.22;4.15;;;8.60;58.50;;;;;;5053513;28;20025;-73
2020/12/10 09:46:10;;;;;;;6.82;4.50;;;8.50;58.50;;;;;;5053522;28;20025;-73
2020/12/10 09:48:36;;;;;;;10.38;3.80;;;8.50;58.50;;;;;;5053315;28;20025;-73
2020/12/10 09:51:03;;;;;;;6.40;4.22;;;8.50;58.50;;;;;;5068765;28;20033;-73
2020/12/10 09:53:45;;;;;;;4.18;3.55;;;8.40;58.70;;;;;;5053771;28;20021;-73
2020/12/10 09:58:36;;;;;;;9.60;4.30;;;8.50;59.10;;;;;;5053513;28;20108;-73
2020/12/10 10:01:02;;;;;;;7.22;4.68;;;8.50;59.00;;;;;;5053374;28;20474;-73
2020/12/10 10:03:28;;;;;;;4.45;3.72;;;8.50;58.90;;;;;;5053309;28;20036;-73
2020/12/10 10:05:54;;;;;;;4.63;3.35;;;8.50;58.80;;;;;;5053324;28;20043;-73
2020/12/10 10:08:23;;;;;;;5.43;3.80;;;8.60;59.00;;;;;;5053108;28;20029;-73
2020/12/10 10:10:49;;;;;;;6.38;3.45;;;8.60;59.20;;;;;;5052909;28;20143;-73
2020/12/10 10:13:15;;;;;;;5.05;3.88;;;8.70;59.20;;;;;;5053250;28;20025;-73
2020/12/10 10:15:42;;;;;;;5.45;3.80;;;8.70;59.00;;;;;;5051681;28;20036;-74
2020/12/10 10:18:08;;;;;;;5.07;3.70;;;8.80;58.80;;;;;;5053190;28;20017;-73
2020/12/10 10:20:34;;;;;;;3.55;2.83;;;8.80;58.80;;;;;;5048449;28;20040;-73
2020/12/10 10:23:00;;;;;;;3.95;3.25;;;8.80;58.90;;;;;;5032908;28;20026;-73
2020/12/10 10:25:25;;;;;;;4.35;3.10;;;8.90;59.10;;;;;;5033678;28;20044;-73
2020/12/10 10:27:53;;;;;;;4.35;3.22;;;9.00;59.10;;;;;;5052963;28;20355;-73
2020/12/10 10:30:19;;;;;;;3.35;2.97;;;9.10;59.10;;;;;;5052718;28;20024;-73
2020/12/10 10:32:44;;;;;;;3.42;3.10;;;9.20;58.70;;;;;;5052987;28;20386;-73
2020/12/10 10:35:10;;;;;;;6.32;3.40;;;9.20;58.40;;;;;;5052915;28;20017;-74
2020/12/10 10:37:36;;;;;;;5.95;3.50;;;9.30;58.20;;;;;;5052727;28;20075;-73
2020/12/10 10:40:02;;;;;;;3.33;2.72;;;9.30;58.00;;;;;;5052835;28;20029;-73
2020/12/10 10:42:28;;;;;;;4.22;3.00;;;9.40;58.00;;;;;;5052615;28;20029;-73
2020/12/10 10:44:53;;;;;;;3.17;2.80;;;9.40;57.70;;;;;;5052635;28;20034;-73
2020/12/10 10:47:19;;;;;;;4.68;3.30;;;9.50;58.00;;;;;;5068343;28;20036;-73
2020/12/10 10:49:45;;;;;;;4.18;3.22;;;9.60;57.70;;;;;;5052859;28;20017;-73
2020/12/10 10:52:10;;;;;;;4.95;3.80;;;9.70;57.60;;;;;;5053132;28;20053;-74
2020/12/10 10:54:36;;;;;;;7.57;4.13;;;9.70;57.20;;;;;;5052052;28;20029;-73
2020/12/10 10:57:02;;;;;;;5.50;3.63;;;9.80;57.20;;;;;;5053374;28;20025;-73
2020/12/10 10:59:28;;;;;;;5.10;3.65;;;9.90;57.10;;;;;;5052183;28;20394;-74
2020/12/10 11:01:54;;;;;;;5.45;3.88;;;9.90;57.00;;;;;;5053355;28;20021;-73
2020/12/10 11:04:20;;;;;;;5.97;4.57;;;10.00;57.10;;;;;;5051738;28;20477;-74
2020/12/10 11:06:50;;;;;;;5.07;4.07;;;10.10;56.80;;;;;;5059306;28;20116;-74
2020/12/10 11:09:16;;;;;;;7.15;4.93;;;10.10;56.60;;;;;;5053602;28;20116;-72
2020/12/10 11:11:42;;;;;;;6.50;5.20;;;10.20;56.50;;;;;;5067421;28;20108;-74
2020/12/10 11:14:08;;;;;;;7.22;5.47;;;10.20;56.30;;;;;;5054641;28;20028;-73
2020/12/10 11:16:33;;;;;;;7.85;6.00;;;10.20;56.00;;;;;;5051416;28;20417;-74
2020/12/10 11:18:59;;;;;;;7.50;5.32;;;10.20;55.80;;;;;;5056249;28;20045;-73
2020/12/10 11:21:26;;;;;;;6.65;5.03;;;10.20;55.70;;;;;;5054955;28;20497;-74
2020/12/10 11:23:52;;;;;;;7.13;4.97;;;10.20;55.60;;;;;;5052652;28;20052;-73
2020/12/10 11:26:18;;;;;;;7.75;4.85;;;10.10;55.90;;;;;;5051266;28;20033;-74
2020/12/10 11:28:44;;;;;;;5.82;4.40;;;10.10;55.70;;;;;;5051479;28;20037;-73
2020/12/10 11:31:09;;;;;;;7.18;5.40;;;10.10;55.90;;;;;;5051436;28;20425;-73
2020/12/10 11:33:36;;;;;;;7.40;5.20;;;10.10;55.90;;;;;;5060696;28;20070;-73
2020/12/10 11:36:04;;;;;;;7.35;5.40;;;10.10;56.00;;;;;;5073263;28;20031;-74
2020/12/10 11:38:30;;;;;;;8.77;6.22;;;10.10;55.90;;;;;;5056749;28;20025;-74
2020/12/10 11:40:56;;;;;;;7.03;5.43;;;10.10;55.90;;;;;;5064463;28;20032;-74
2020/12/10 11:43:22;;;;;;;7.25;5.60;;;10.10;55.70;;;;;;5057024;28;20025;-74
2020/12/10 11:45:47;;;;;;;6.60;4.68;;;10.10;55.70;;;;;;5071635;28;20021;-74
2020/12/10 11:48:13;;;;;;;6.88;5.68;;;10.10;55.70;;;;;;5056039;28;20057;-74
2020/12/10 11:50:39;;;;;;;6.18;4.60;;;10.10;55.50;;;;;;5056672;28;20530;-73
2020/12/10 11:53:05;;;;;;;7.05;5.18;;;10.00;55.50;;;;;;5056146;28;20059;-73
2020/12/10 11:55:31;;;;;;;7.72;5.43;;;10.00;55.50;;;;;;5059317;28;20074;-73
2020/12/10 11:57:57;;;;;;;6.15;4.53;;;9.90;55.40;;;;;;5058542;28;20021;-74
2020/12/10 12:00:23;;;;;;;6.47;5.20;;;9.90;55.80;;;;;;5056083;28;20098;-73
2020/12/10 12:02:51;;;;;;;6.43;4.95;;;9.90;55.70;;;;;;5059675;28;20086;-73
2020/12/10 12:05:18;;;;;;;6.95;4.88;;;9.90;55.90;;;;;;5056304;28;20021;-73
2020/12/10 12:07:44;;;;;;;6.15;4.70;;;9.90;56.10;;;;;;5055680;28;20143;-73
2020/12/10 12:10:10;;;;;;;5.75;4.35;;;9.80;56.20;;;;;;5049862;28;20029;-73
2020/12/10 12:12:36;;;;;;;9.90;5.22;;;9.80;56.30;;;;;;5054071;28;20032;-73
2020/12/10 12:15:06;;;;;;;6.95;5.10;;;9.90;56.40;;;;;;5055896;28;20017;-73
2020/12/10 12:17:34;;;;;;;5.85;4.15;;;9.90;56.50;;;;;;5055795;28;20024;-73
2020/12/10 12:20:01;;;;;;;7.38;5.32;;;9.90;56.40;;;;;;5054976;28;20505;-74
2020/12/10 12:22:27;;;;;;;7.53;5.25;;;9.90;56.40;;;;;;5048285;28;20497;-73
2020/12/10 12:24:55;;;;;;;6.38;5.05;;;10.00;56.60;;;;;;5053778;28;20041;-74
2020/12/10 12:27:21;;;;;;;8.13;5.22;;;10.00;56.50;;;;;;5055624;28;20079;-73
2020/12/10 12:29:47;;;;;;;7.85;5.80;;;10.00;56.40;;;;;;5055712;28;20024;-73
2020/12/10 12:32:12;;;;;;;8.00;6.10;;;10.00;56.20;;;;;;5052615;28;20033;-73
2020/12/10 12:34:38;;;;;;;7.57;5.15;;;10.00;56.00;;;;;;5055355;28;20017;-74
2020/12/10 12:37:04;;;;;;;8.32;5.68;;;9.90;56.10;;;;;;5054972;28;20585;-73
2020/12/10 12:39:29;;;;;;;8.10;5.75;;;9.90;56.30;;;;;;5049203;28;20029;-73
2020/12/10 12:41:55;;;;;;;8.75;6.03;;;9.90;56.40;;;;;;5061066;28;20082;-73
2020/12/10 12:44:21;;;;;;;8.65;6.22;;;9.90;56.40;;;;;;5058450;28;20046;-73
2020/12/10 12:46:51;;;;;;;7.80;5.68;;;9.90;56.40;;;;;;5060890;28;20020;-73
2020/12/10 12:49:18;;;;;;;9.18;6.50;;;9.90;56.30;;;;;;5054913;28;20360;-73
2020/12/10 12:51:50;;;;;;;9.73;6.75;;;9.80;56.10;;;;;;5060624;28;20020;-72
2020/12/10 12:54:16;;;;;;;8.70;6.80;;;9.80;56.20;;;;;;5070048;28;20058;-73
2020/12/10 12:56:46;;;;;;;9.13;6.53;;;9.70;56.30;;;;;;5060783;28;20099;-73